Marcella, Arkansas
Current Conditions -  °F | °C
As of 4:15 AM on Friday 31 Oct 2014 (Local Time) from KBVX Reporting Station
Clear Clear  
Wind Chill: 54°   Ceiling: Unl
Heat Index: 54°   Visibility: 10mi
Dew Point: 43°   Wind: 8mph
Humidity: 67%   Direction: 290°WNW
Pressure: 30.04"   Gusts: NA
Location:  35.79°N, 91.88°W
Report Text: KBVX 310915Z AUTO 29007KT 240V340 10SM CLR 12/06 A3004 RMK AO1
Loading
Personal Weather Stations






























Interactive Weather Map
Tropical Storm Tracking
New forecast layout! Learn more

10-Day Weather Forecast

Advertisements
Track Severe Weather on mobile